Time;durP1;ratioP1;P1;durP2;ratioP2;P2;SDS_P1;SDS_P2;PMS_P1;PMS_P2;Temp;Humidity;BMP_temperature;BMP_pressure;BME280_temperature;BME280_humidity;BME280_pressure;Samples;Min_cycle;Max_cycle;Signal;HPM_P1;HPM_P2
2021/12/26 00:01:17;;;;;;;;;;;21.70;48.60;;;;;;6341520;27;20166;-43
2021/12/26 00:04:19;;;;;;;;;;;21.60;48.40;;;;;;6337239;27;20744;-41
2021/12/26 00:07:20;;;;;;;;;;;21.40;48.30;;;;;;6326873;27;19935;-41
2021/12/26 00:10:24;;;;;;;;;;;21.40;48.40;;;;;;6335575;27;20033;-42
2021/12/26 00:13:25;;;;;;;;;;;21.40;48.60;;;;;;6343743;27;19930;-41
2021/12/26 00:16:27;;;;;;;;;;;21.60;48.50;;;;;;6326075;28;19970;-41
2021/12/26 00:19:32;;;;;;;;;;;21.30;48.30;;;;;;6325002;28;20473;-42
2021/12/26 00:22:34;;;;;;;;;;;21.70;48.60;;;;;;6322554;28;20034;-41
2021/12/26 00:25:36;;;;;;;;;;;21.30;48.40;;;;;;6320420;28;19955;-41
2021/12/26 00:28:37;;;;;;;;;;;21.70;48.60;;;;;;6324383;28;20567;-41
2021/12/26 00:31:39;;;;;;;;;;;22.00;48.70;;;;;;6343629;27;20888;-41
2021/12/26 00:34:40;;;;;;;;;;;21.20;48.40;;;;;;6335923;27;20524;-41
2021/12/26 00:37:42;;;;;;;;;;;21.20;48.30;;;;;;6315770;28;20306;-41
2021/12/26 00:40:44;;;;;;;;;;;21.70;48.60;;;;;;6315357;28;19923;-41
2021/12/26 00:43:45;;;;;;;;;;;21.20;48.40;;;;;;6317889;28;19927;-41
2021/12/26 00:46:53;;;;;;;;;;;21.20;48.40;;;;;;6328408;27;19934;-41
2021/12/26 00:49:55;;;;;;;;;;;21.30;48.40;;;;;;6341810;27;19927;-42
2021/12/26 00:52:56;;;;;;;;;;;21.50;48.50;;;;;;6316412;27;19977;-41
2021/12/26 00:55:58;;;;;;;;;;;21.40;48.50;;;;;;6305638;27;19973;-41
2021/12/26 00:58:59;;;;;;;;;;;21.30;48.50;;;;;;6332166;27;20525;-42
2021/12/26 01:02:06;;;;;;;;;;;21.70;48.60;;;;;;6329384;27;19949;-42
2021/12/26 01:05:08;;;;;;;;;;;21.20;48.40;;;;;;6334410;27;19983;-41
2021/12/26 01:08:11;;;;;;;;;;;21.20;48.30;;;;;;6319823;27;19923;-41
2021/12/26 01:11:21;;;;;;;;;;;21.40;48.50;;;;;;6316708;28;19931;-41
2021/12/26 01:14:27;;;;;;;;;;;21.30;48.50;;;;;;6325820;28;20054;-41
2021/12/26 01:17:54;;;;;;;;;;;21.50;48.60;;;;;;6311025;28;19951;-42
2021/12/26 01:21:03;;;;;;;;;;;21.40;48.60;;;;;;6326877;28;20687;-41
2021/12/26 01:24:06;;;;;;;;;;;21.30;48.40;;;;;;6329977;27;19927;-42
2021/12/26 01:27:09;;;;;;;;;;;21.10;48.30;;;;;;6332189;27;19996;-41
2021/12/26 01:30:11;;;;;;;;;;;21.60;48.60;;;;;;6327551;27;19924;-41
2021/12/26 01:33:19;;;;;;;;;;;22.10;48.90;;;;;;6333268;28;19931;-41
2021/12/26 01:36:33;;;;;;;;;;;21.20;48.40;;;;;;6308949;28;19982;-41
2021/12/26 01:39:55;;;;;;;;;;;21.50;48.60;;;;;;6329114;28;19958;-41
2021/12/26 01:43:18;;;;;;;;;;;21.30;48.50;;;;;;6332702;28;20796;-41
2021/12/26 01:46:27;;;;;;;;;;;21.30;48.50;;;;;;6339061;27;19927;-41
2021/12/26 01:49:29;;;;;;;;;;;21.50;48.60;;;;;;6343033;27;19969;-41
2021/12/26 01:52:31;;;;;;;;;;;21.30;48.50;;;;;;6306971;28;20163;-41
2021/12/26 01:55:39;;;;;;;;;;;21.40;49.20;;;;;;6329779;27;19986;-41
2021/12/26 01:58:42;;;;;;;;;;;21.50;48.60;;;;;;6335057;27;20285;-42
2021/12/26 02:01:55;;;;;;;;;;;21.40;48.60;;;;;;6347361;27;19961;-41
2021/12/26 02:04:57;;;;;;;;;;;21.70;48.70;;;;;;6336452;27;20458;-41
2021/12/26 02:08:01;;;;;;;;;;;21.40;48.60;;;;;;6325138;28;20027;-41
2021/12/26 02:11:02;;;;;;;;;;;21.80;48.70;;;;;;6327400;27;20489;-41
2021/12/26 02:14:05;;;;;;;;;;;21.40;48.60;;;;;;6326961;28;19997;-41
2021/12/26 02:17:25;;;;;;;;;;;21.30;48.60;;;;;;6337533;27;19993;-41
2021/12/26 02:20:35;;;;;;;;;;;21.20;48.40;;;;;;6336833;27;20660;-42
2021/12/26 02:23:44;;;;;;;;;;;21.70;48.80;;;;;;6323767;28;20408;-41
2021/12/26 02:30:04;;;;;;;;;;;21.20;48.60;;;;;;6324425;27;20279;-42
2021/12/26 02:33:10;;;;;;;;;;;21.80;48.90;;;;;;6323034;28;20276;-42
2021/12/26 02:36:13;;;;;;;;;;;21.60;48.70;;;;;;6333033;27;19941;-45
2021/12/26 02:39:15;;;;;;;;;;;21.30;48.70;;;;;;6341841;27;19930;-41
2021/12/26 02:42:17;;;;;;;;;;;21.30;48.60;;;;;;6308941;28;20268;-42
2021/12/26 02:45:19;;;;;;;;;;;21.60;48.70;;;;;;6320555;28;20632;-42
2021/12/26 02:48:21;;;;;;;;;;;21.70;48.90;;;;;;6326588;28;20049;-41
2021/12/26 02:51:23;;;;;;;;;;;21.60;48.80;;;;;;6324857;27;19994;-41
2021/12/26 02:54:25;;;;;;;;;;;21.30;48.70;;;;;;6342775;27;20571;-42
2021/12/26 02:57:27;;;;;;;;;;;21.50;48.70;;;;;;6334670;27;19927;-41
2021/12/26 03:00:30;;;;;;;;;;;21.50;48.80;;;;;;6339592;27;20020;-41
2021/12/26 03:03:32;;;;;;;;;;;21.60;48.80;;;;;;6323165;27;19931;-42
2021/12/26 03:06:41;;;;;;;;;;;21.60;48.80;;;;;;6337712;27;19927;-42
2021/12/26 03:09:49;;;;;;;;;;;21.50;48.80;;;;;;6334255;27;19954;-42
2021/12/26 03:12:51;;;;;;;;;;;21.30;48.70;;;;;;6344458;27;19927;-42
2021/12/26 03:15:53;;;;;;;;;;;21.40;48.70;;;;;;6324551;27;19927;-42
2021/12/26 03:18:55;;;;;;;;;;;21.10;48.60;;;;;;6305759;28;20124;-41
2021/12/26 03:21:59;;;;;;;;;;;21.40;48.70;;;;;;6321709;28;20347;-42
2021/12/26 03:25:00;;;;;;;;;;;21.20;48.70;;;;;;6302239;28;20017;-41
2021/12/26 03:28:03;;;;;;;;;;;21.50;48.90;;;;;;6323229;27;19923;-42
2021/12/26 03:31:05;;;;;;;;;;;21.50;48.80;;;;;;6329598;27;20818;-42
2021/12/26 03:34:09;;;;;;;;;;;21.20;48.70;;;;;;6346466;27;19958;-41
2021/12/26 03:37:12;;;;;;;;;;;21.60;48.90;;;;;;6320611;28;19932;-42
2021/12/26 03:40:13;;;;;;;;;;;21.10;48.70;;;;;;6317403;28;19923;-43
2021/12/26 03:43:15;;;;;;;;;;;21.20;48.70;;;;;;6299572;28;20386;-41
2021/12/26 03:46:18;;;;;;;;;;;21.20;48.70;;;;;;6330663;27;20051;-42
2021/12/26 03:49:19;;;;;;;;;;;21.30;48.90;;;;;;6342864;27;20426;-43
2021/12/26 03:52:22;;;;;;;;;;;21.40;48.90;;;;;;6325231;28;20061;-41
2021/12/26 03:55:25;;;;;;;;;;;21.30;48.80;;;;;;6321052;27;19948;-41
2021/12/26 03:58:28;;;;;;;;;;;21.60;49.00;;;;;;6324832;27;19926;-42
2021/12/26 04:01:29;;;;;;;;;;;21.30;48.90;;;;;;6332191;27;20005;-41
2021/12/26 04:04:31;;;;;;;;;;;21.20;48.80;;;;;;6346490;27;19931;-42
2021/12/26 04:07:33;;;;;;;;;;;21.50;49.00;;;;;;6339474;27;19927;-42
2021/12/26 04:10:34;;;;;;;;;;;21.30;48.90;;;;;;6344159;27;19927;-41
2021/12/26 04:13:36;;;;;;;;;;;21.20;48.90;;;;;;6332112;27;19928;-41
2021/12/26 04:16:38;;;;;;;;;;;21.20;48.90;;;;;;6322376;28;19934;-41
2021/12/26 04:19:40;;;;;;;;;;;21.20;48.90;;;;;;6321598;28;19928;-41
2021/12/26 04:22:42;;;;;;;;;;;21.20;48.90;;;;;;6328934;27;19976;-41
2021/12/26 04:25:43;;;;;;;;;;;21.00;48.80;;;;;;6337054;27;19984;-42
2021/12/26 04:28:45;;;;;;;;;;;21.40;49.00;;;;;;6318966;28;19974;-42
2021/12/26 04:31:46;;;;;;;;;;;21.20;48.90;;;;;;6305882;28;20380;-41
2021/12/26 04:34:48;;;;;;;;;;;21.50;49.10;;;;;;6324224;28;20413;-41
2021/12/26 04:37:51;;;;;;;;;;;21.60;49.10;;;;;;6320611;28;19935;-42
2021/12/26 04:40:53;;;;;;;;;;;20.90;48.70;;;;;;6330997;27;20038;-41
2021/12/26 04:44:04;;;;;;;;;;;21.50;49.00;;;;;;6335783;27;19923;-42
2021/12/26 04:47:18;;;;;;;;;;;21.60;49.10;;;;;;6319548;28;20448;-41
2021/12/26 04:50:20;;;;;;;;;;;21.20;48.90;;;;;;6322802;28;20445;-41
2021/12/26 04:53:31;;;;;;;;;;;21.20;48.80;;;;;;6312317;28;19927;-41
2021/12/26 04:56:33;;;;;;;;;;;21.20;49.00;;;;;;6324391;27;19954;-42
2021/12/26 04:59:34;;;;;;;;;;;21.30;49.00;;;;;;6331356;27;20164;-41
2021/12/26 05:02:36;;;;;;;;;;;21.30;49.00;;;;;;6327493;27;19928;-41
2021/12/26 05:05:38;;;;;;;;;;;21.50;49.10;;;;;;6338796;27;20217;-41
2021/12/26 05:08:41;;;;;;;;;;;21.70;49.30;;;;;;6324138;27;20356;-41
2021/12/26 05:11:43;;;;;;;;;;;21.20;49.00;;;;;;6321531;27;20257;-41
2021/12/26 05:14:44;;;;;;;;;;;21.20;49.00;;;;;;6325992;27;20118;-41
2021/12/26 05:17:45;;;;;;;;;;;21.40;49.00;;;;;;6338355;27;19938;-41
2021/12/26 05:20:47;;;;;;;;;;;21.20;49.00;;;;;;6332152;27;20343;-41
2021/12/26 05:23:49;;;;;;;;;;;21.40;49.00;;;;;;6318859;27;20458;-43
2021/12/26 05:26:51;;;;;;;;;;;21.60;49.10;;;;;;6320666;27;19977;-41
2021/12/26 05:29:52;;;;;;;;;;;21.30;49.10;;;;;;6316822;27;19924;-41
2021/12/26 05:32:54;;;;;;;;;;;21.00;48.90;;;;;;6321496;27;20597;-41
2021/12/26 05:35:57;;;;;;;;;;;21.10;49.00;;;;;;6326176;27;20034;-41
2021/12/26 05:38:59;;;;;;;;;;;21.70;49.30;;;;;;6340366;27;20464;-41
2021/12/26 05:42:01;;;;;;;;;;;21.00;48.90;;;;;;6321423;28;20374;-41
2021/12/26 05:45:08;;;;;;;;;;;21.30;49.10;;;;;;6301316;28;20244;-44
2021/12/26 05:48:16;;;;;;;;;;;21.20;49.00;;;;;;6300747;28;19984;-43
2021/12/26 05:51:18;;;;;;;;;;;21.50;49.20;;;;;;6322222;28;20695;-41
2021/12/26 05:54:40;;;;;;;;;;;21.20;49.10;;;;;;6339735;27;20679;-41
2021/12/26 05:57:42;;;;;;;;;;;21.20;49.00;;;;;;6332851;27;19935;-41
2021/12/26 06:00:49;;;;;;;;;;;21.20;49.00;;;;;;6341149;27;19927;-42
2021/12/26 06:03:50;;;;;;;;;;;21.10;49.00;;;;;;6322634;27;19927;-42
2021/12/26 06:06:52;;;;;;;;;;;21.40;49.80;;;;;;6330906;27;19927;-41
2021/12/26 06:09:58;;;;;;;;;;;21.50;49.20;;;;;;6320630;27;19927;-41
2021/12/26 06:12:59;;;;;;;;;;;21.40;49.20;;;;;;6338535;27;19924;-41
2021/12/26 06:16:01;;;;;;;;;;;21.20;49.20;;;;;;6319166;28;19928;-41
2021/12/26 06:19:03;;;;;;;;;;;21.30;49.20;;;;;;6317201;28;20442;-41
2021/12/26 06:22:16;;;;;;;;;;;21.20;49.20;;;;;;6318282;27;20799;-42
2021/12/26 06:25:37;;;;;;;;;;;21.40;49.30;;;;;;6315745;28;20479;-41
2021/12/26 06:28:53;;;;;;;;;;;21.30;49.20;;;;;;6318951;28;19923;-41
2021/12/26 06:32:15;;;;;;;;;;;21.20;49.20;;;;;;6332295;27;19927;-41
2021/12/26 06:35:34;;;;;;;;;;;21.30;49.20;;;;;;6334039;27;19923;-41
2021/12/26 06:38:55;;;;;;;;;;;21.30;49.30;;;;;;6319426;28;20844;-42
2021/12/26 06:42:19;;;;;;;;;;;21.50;49.30;;;;;;6318269;28;19982;-41
2021/12/26 06:45:34;;;;;;;;;;;21.10;49.20;;;;;;6323056;28;20042;-41
2021/12/26 06:48:56;;;;;;;;;;;21.10;49.20;;;;;;6336960;27;19934;-41
2021/12/26 06:51:57;;;;;;;;;;;21.40;49.30;;;;;;6324622;27;20046;-41
2021/12/26 06:54:59;;;;;;;;;;;21.50;49.40;;;;;;6318870;28;20053;-41
2021/12/26 06:58:00;;;;;;;;;;;21.40;49.40;;;;;;6332530;27;19962;-41
2021/12/26 07:01:02;;;;;;;;;;;21.10;49.20;;;;;;6315003;27;20174;-41
2021/12/26 07:04:04;;;;;;;;;;;21.50;49.40;;;;;;6287044;27;21249;-41
2021/12/26 07:07:07;;;;;;;;;;;21.10;49.20;;;;;;6304328;27;20408;-41
2021/12/26 07:10:09;;;;;;;;;;;21.30;49.30;;;;;;6303694;27;19961;-41
2021/12/26 07:13:11;;;;;;;;;;;21.00;49.00;;;;;;6295179;28;19934;-41
2021/12/26 07:16:17;;;;;;;;;;;21.10;49.20;;;;;;6303101;28;19970;-42
2021/12/26 07:19:19;;;;;;;;;;;21.30;49.30;;;;;;6296549;27;19975;-41
2021/12/26 07:22:23;;;;;;;;;;;21.40;49.40;;;;;;6309233;27;20731;-41
2021/12/26 07:25:25;;;;;;;;;;;21.00;49.80;;;;;;6311478;27;19977;-41
2021/12/26 07:28:26;;;;;;;;;;;21.40;49.40;;;;;;6300638;28;20361;-42
2021/12/26 07:31:44;;;;;;;;;;;21.40;49.40;;;;;;6299678;28;19933;-41
2021/12/26 07:34:47;;;;;;;;;;;21.20;49.20;;;;;;6297120;28;20264;-41
2021/12/26 07:37:48;;;;;;;;;;;21.00;49.20;;;;;;6297558;28;20377;-41
2021/12/26 07:40:50;;;;;;;;;;;21.10;49.30;;;;;;6301394;27;20453;-41
2021/12/26 07:44:05;;;;;;;;;;;21.10;49.10;;;;;;6313622;27;20557;-41
2021/12/26 07:47:22;;;;;;;;;;;21.30;49.30;;;;;;6295991;28;19927;-41
2021/12/26 07:50:26;;;;;;;;;;;21.20;49.20;;;;;;6295579;28;19978;-41
2021/12/26 07:53:46;;;;;;;;;;;21.50;49.30;;;;;;6293964;28;20099;-41
2021/12/26 07:57:06;;;;;;;;;;;21.00;49.20;;;;;;6295765;27;19927;-41
2021/12/26 08:00:25;;;;;;;;;;;21.30;49.30;;;;;;6315285;27;19927;-41
2021/12/26 08:03:29;;;;;;;;;;;21.10;49.20;;;;;;6318788;27;19991;-41
2021/12/26 08:06:44;;;;;;;;;;;21.20;49.30;;;;;;6306041;27;20325;-40
2021/12/26 08:09:46;;;;;;;;;;;20.90;49.20;;;;;;6299734;27;20567;-41
2021/12/26 08:12:47;;;;;;;;;;;21.20;49.30;;;;;;6315801;27;19962;-41
2021/12/26 08:15:50;;;;;;;;;;;21.50;49.50;;;;;;6282122;27;19927;-41
2021/12/26 08:18:51;;;;;;;;;;;21.20;49.30;;;;;;6319302;27;19927;-41
2021/12/26 08:21:54;;;;;;;;;;;20.90;49.20;;;;;;6306685;27;20575;-41
2021/12/26 08:24:55;;;;;;;;;;;21.00;49.10;;;;;;6298414;27;19962;-41
2021/12/26 08:27:57;;;;;;;;;;;21.40;49.30;;;;;;6299546;28;20760;-41
2021/12/26 08:31:01;;;;;;;;;;;21.30;49.40;;;;;;6301252;27;20313;-41
2021/12/26 08:34:04;;;;;;;;;;;21.30;49.30;;;;;;6290185;27;20445;-41
2021/12/26 08:37:05;;;;;;;;;;;21.20;49.30;;;;;;6320894;27;20188;-41
2021/12/26 08:40:07;;;;;;;;;;;20.90;49.20;;;;;;6298591;28;19932;-43
2021/12/26 08:43:09;;;;;;;;;;;21.20;49.30;;;;;;6303927;28;20589;-41
2021/12/26 08:46:11;;;;;;;;;;;21.40;49.40;;;;;;6284019;28;20054;-41
2021/12/26 08:49:13;;;;;;;;;;;20.90;49.20;;;;;;6289621;28;20827;-41
2021/12/26 08:52:14;;;;;;;;;;;21.00;49.30;;;;;;6311246;27;20057;-41
2021/12/26 08:55:15;;;;;;;;;;;21.20;49.30;;;;;;6301428;27;19967;-41
2021/12/26 08:58:17;;;;;;;;;;;21.20;49.40;;;;;;6320426;27;20233;-41
2021/12/26 09:01:19;;;;;;;;;;;21.40;49.40;;;;;;6290252;27;19933;-41
2021/12/26 09:04:20;;;;;;;;;;;21.00;49.20;;;;;;6304040;27;19935;-41
2021/12/26 09:07:22;;;;;;;;;;;21.20;49.40;;;;;;6314045;27;19934;-41
2021/12/26 09:10:23;;;;;;;;;;;21.00;49.20;;;;;;6302688;27;19990;-41
2021/12/26 09:13:25;;;;;;;;;;;21.20;49.30;;;;;;6319995;27;19982;-41
2021/12/26 09:16:33;;;;;;;;;;;21.60;49.50;;;;;;6308619;27;20055;-41
2021/12/26 09:19:34;;;;;;;;;;;21.00;49.00;;;;;;6302772;27;20367;-41
2021/12/26 09:22:37;;;;;;;;;;;21.20;49.20;;;;;;6300334;28;19962;-42
2021/12/26 09:25:39;;;;;;;;;;;21.30;49.00;;;;;;6299560;27;19923;-41
2021/12/26 09:28:40;;;;;;;;;;;21.10;49.00;;;;;;6300407;28;20930;-41
2021/12/26 09:31:42;;;;;;;;;;;21.20;49.00;;;;;;6305529;27;20233;-41
2021/12/26 09:34:43;;;;;;;;;;;21.20;48.90;;;;;;6322832;27;20158;-41
2021/12/26 09:37:45;;;;;;;;;;;21.20;48.90;;;;;;6305299;27;20375;-42
2021/12/26 09:40:46;;;;;;;;;;;21.00;48.60;;;;;;6299213;28;20150;-41
2021/12/26 09:43:48;;;;;;;;;;;21.10;48.70;;;;;;6301535;27;20042;-41
2021/12/26 09:46:50;;;;;;;;;;;21.70;48.90;;;;;;6302573;27;20582;-41
2021/12/26 09:49:52;;;;;;;;;;;21.60;48.90;;;;;;6319975;27;20709;-41
2021/12/26 09:52:53;;;;;;;;;;;21.20;48.60;;;;;;6303611;27;20054;-41
2021/12/26 09:55:55;;;;;;;;;;;21.20;48.50;;;;;;6281355;28;20247;-40
2021/12/26 09:58:57;;;;;;;;;;;21.40;48.60;;;;;;6300091;27;20379;-41
2021/12/26 10:02:08;;;;;;;;;;;21.60;48.60;;;;;;6302891;27;19924;-41
2021/12/26 10:05:20;;;;;;;;;;;21.70;48.70;;;;;;6294601;27;19934;-41
2021/12/26 10:08:21;;;;;;;;;;;21.80;48.80;;;;;;6303479;27;20488;-41
2021/12/26 10:11:24;;;;;;;;;;;21.40;48.40;;;;;;6314660;27;20139;-41
2021/12/26 10:14:28;;;;;;;;;;;21.60;48.50;;;;;;6276130;28;19927;-41
2021/12/26 10:17:31;;;;;;;;;;;22.00;48.60;;;;;;6281608;28;20151;-41
2021/12/26 10:20:34;;;;;;;;;;;21.80;48.60;;;;;;6295764;28;20479;-41
2021/12/26 10:23:35;;;;;;;;;;;21.40;48.30;;;;;;6312376;27;19950;-41
2021/12/26 10:26:37;;;;;;;;;;;21.50;48.30;;;;;;6293764;27;19927;-42
2021/12/26 10:29:39;;;;;;;;;;;21.50;48.30;;;;;;6291642;28;20233;-41
2021/12/26 10:32:41;;;;;;;;;;;21.80;48.40;;;;;;6296510;28;20278;-41
2021/12/26 10:35:43;;;;;;;;;;;21.60;48.30;;;;;;6288735;27;20780;-41
2021/12/26 10:39:05;;;;;;;;;;;21.80;48.40;;;;;;6294022;27;20019;-41
2021/12/26 10:42:08;;;;;;;;;;;21.60;48.20;;;;;;6301224;27;19927;-41
2021/12/26 10:45:11;;;;;;;;;;;22.00;48.40;;;;;;6287928;28;19995;-41
2021/12/26 10:48:15;;;;;;;;;;;22.10;48.40;;;;;;6297552;28;20032;-41
2021/12/26 10:51:31;;;;;;;;;;;22.00;48.40;;;;;;6298943;28;20619;-41
2021/12/26 10:54:32;;;;;;;;;;;21.60;48.00;;;;;;6281040;28;20169;-43
2021/12/26 10:57:34;;;;;;;;;;;22.10;48.30;;;;;;6304001;27;20034;-40
2021/12/26 11:00:37;;;;;;;;;;;21.70;48.10;;;;;;6303789;27;19926;-41
2021/12/26 11:03:39;;;;;;;;;;;21.60;48.00;;;;;;6321982;27;19930;-42
2021/12/26 11:06:54;;;;;;;;;;;21.80;48.10;;;;;;6330776;27;19930;-41
2021/12/26 11:10:05;;;;;;;;;;;22.20;48.30;;;;;;6296514;27;20034;-41
2021/12/26 11:13:07;;;;;;;;;;;21.70;47.90;;;;;;6293469;27;20059;-41
2021/12/26 11:16:11;;;;;;;;;;;22.00;48.10;;;;;;6302379;27;19930;-41
2021/12/26 11:19:13;;;;;;;;;;;22.40;48.30;;;;;;6312492;27;19934;-41
2021/12/26 11:22:14;;;;;;;;;;;21.80;47.90;;;;;;6308732;27;20194;-42
2021/12/26 11:25:16;;;;;;;;;;;21.90;48.00;;;;;;6295605;27;20050;-41
2021/12/26 11:28:22;;;;;;;;;;;21.90;47.90;;;;;;6300003;28;20213;-41
2021/12/26 11:31:25;;;;;;;;;;;22.40;48.20;;;;;;6297981;28;19980;-41
2021/12/26 11:34:28;;;;;;;;;;;22.00;48.00;;;;;;6303643;28;20288;-41
2021/12/26 11:37:30;;;;;;;;;;;21.80;47.90;;;;;;6318053;27;20725;-41
2021/12/26 11:40:52;;;;;;;;;;;22.30;48.10;;;;;;6306932;27;20366;-41
2021/12/26 11:44:11;;;;;;;;;;;22.10;48.00;;;;;;6280218;28;20534;-41
2021/12/26 11:47:56;;;;;;;;;;;22.30;48.00;;;;;;6298556;28;20033;-41
2021/12/26 11:51:28;;;;;;;;;;;22.30;48.00;;;;;;6297001;28;20439;-41
2021/12/26 11:54:58;;;;;;;;;;;22.00;47.80;;;;;;6293969;28;20482;-41
2021/12/26 11:58:06;;;;;;;;;;;21.90;47.80;;;;;;6310546;27;20007;-41
2021/12/26 12:01:12;;;;;;;;;;;22.30;48.00;;;;;;6309894;27;20389;-42
2021/12/26 12:04:17;;;;;;;;;;;22.10;47.90;;;;;;6319517;27;20109;-41
2021/12/26 12:07:20;;;;;;;;;;;22.60;48.10;;;;;;6301080;27;20141;-41
2021/12/26 12:10:34;;;;;;;;;;;22.10;47.90;;;;;;6301967;27;19926;-41
2021/12/26 12:13:44;;;;;;;;;;;22.10;47.90;;;;;;6318695;27;20507;-42
2021/12/26 12:16:45;;;;;;;;;;;22.20;47.80;;;;;;6300306;27;20053;-41
2021/12/26 12:20:01;;;;;;;;;;;22.20;47.90;;;;;;6303042;28;20576;-41
2021/12/26 12:23:13;;;;;;;;;;;22.50;48.00;;;;;;6278992;28;19935;-41
2021/12/26 12:26:36;;;;;;;;;;;22.40;47.90;;;;;;6292502;28;20162;-41
2021/12/26 12:29:46;;;;;;;;;;;22.20;47.80;;;;;;6282047;28;20417;-41
2021/12/26 12:33:09;;;;;;;;;;;22.60;48.00;;;;;;6304503;27;20531;-41
2021/12/26 12:36:12;;;;;;;;;;;22.20;47.80;;;;;;6299633;27;20511;-41
2021/12/26 12:39:19;;;;;;;;;;;22.60;48.00;;;;;;6295950;28;19971;-41
2021/12/26 12:42:20;;;;;;;;;;;22.30;47.90;;;;;;6278033;28;20284;-42
2021/12/26 12:45:21;;;;;;;;;;;22.80;48.10;;;;;;6299912;28;19932;-42
2021/12/26 12:48:24;;;;;;;;;;;22.50;48.00;;;;;;6303221;27;19931;-41
2021/12/26 12:51:41;;;;;;;;;;;22.30;47.80;;;;;;6310283;27;20270;-42
2021/12/26 12:54:49;;;;;;;;;;;22.70;47.90;;;;;;6275979;28;19928;-41
2021/12/26 12:57:52;;;;;;;;;;;22.60;48.00;;;;;;6307367;27;20373;-41
2021/12/26 13:00:53;;;;;;;;;;;22.20;47.70;;;;;;6295559;27;20237;-41
2021/12/26 13:03:57;;;;;;;;;;;22.50;47.90;;;;;;6292350;27;19934;-41
2021/12/26 13:06:59;;;;;;;;;;;22.50;47.90;;;;;;6308606;27;20177;-41
2021/12/26 13:10:05;;;;;;;;;;;22.70;48.00;;;;;;6296267;27;20051;-41
2021/12/26 13:13:08;;;;;;;;;;;22.30;47.80;;;;;;6295903;28;19974;-41
2021/12/26 13:16:10;;;;;;;;;;;22.80;48.00;;;;;;6298256;28;20023;-41
2021/12/26 13:19:12;;;;;;;;;;;22.30;47.80;;;;;;6295157;28;20273;-41
2021/12/26 13:22:13;;;;;;;;;;;22.60;48.00;;;;;;6306876;27;20205;-41
2021/12/26 13:25:24;;;;;;;;;;;22.70;48.00;;;;;;6308006;27;20555;-41
2021/12/26 13:28:27;;;;;;;;;;;22.60;47.90;;;;;;6277178;28;20264;-42
2021/12/26 13:31:34;;;;;;;;;;;22.80;48.00;;;;;;6297312;27;20440;-41
2021/12/26 13:34:35;;;;;;;;;;;22.50;47.90;;;;;;6298505;28;19923;-41
2021/12/26 13:37:37;;;;;;;;;;;22.30;47.80;;;;;;6301605;28;20448;-41
2021/12/26 13:40:40;;;;;;;;;;;22.40;47.80;;;;;;6278027;28;20267;-43
2021/12/26 13:43:42;;;;;;;;;;;22.40;47.80;;;;;;6291413;27;20305;-41
2021/12/26 13:46:44;;;;;;;;;;;22.70;48.00;;;;;;6299932;27;20269;-42
2021/12/26 13:49:45;;;;;;;;;;;22.40;47.80;;;;;;6305356;27;19964;-41
2021/12/26 13:52:57;;;;;;;;;;;22.90;48.10;;;;;;6298441;28;20030;-41
2021/12/26 13:55:59;;;;;;;;;;;22.70;48.00;;;;;;6296746;28;20523;-42
2021/12/26 13:59:01;;;;;;;;;;;22.60;47.90;;;;;;6312117;27;19978;-41
2021/12/26 14:02:03;;;;;;;;;;;22.40;47.80;;;;;;6317423;27;20831;-41
2021/12/26 14:05:06;;;;;;;;;;;23.00;48.10;;;;;;6300616;27;20270;-42
2021/12/26 14:08:12;;;;;;;;;;;22.50;47.80;;;;;;6287327;27;20227;-41
2021/12/26 14:11:14;;;;;;;;;;;22.90;48.00;;;;;;6303197;27;21236;-44
2021/12/26 14:14:21;;;;;;;;;;;22.50;47.80;;;;;;6312564;27;20029;-41
2021/12/26 14:17:22;;;;;;;;;;;22.80;48.00;;;;;;6300585;27;19927;-41
2021/12/26 14:20:26;;;;;;;;;;;22.80;48.00;;;;;;6316538;27;20690;-41
2021/12/26 14:23:28;;;;;;;;;;;22.70;48.50;;;;;;6303521;27;20035;-41
2021/12/26 14:26:34;;;;;;;;;;;22.70;47.90;;;;;;6300536;28;20425;-41
2021/12/26 14:29:35;;;;;;;;;;;22.60;47.90;;;;;;6300624;27;19930;-41
2021/12/26 14:32:37;;;;;;;;;;;22.50;47.80;;;;;;6299620;28;20146;-41
2021/12/26 14:35:38;;;;;;;;;;;22.50;47.80;;;;;;6304143;27;19923;-41
2021/12/26 14:38:49;;;;;;;;;;;22.80;47.90;;;;;;6317638;27;20043;-41
2021/12/26 14:41:52;;;;;;;;;;;22.60;47.90;;;;;;6296504;27;20179;-42
2021/12/26 14:44:55;;;;;;;;;;;22.70;48.00;;;;;;6301928;28;20069;-41
2021/12/26 14:47:56;;;;;;;;;;;22.70;47.90;;;;;;6278183;28;20101;-42
2021/12/26 14:51:07;;;;;;;;;;;22.80;48.00;;;;;;6293160;27;19924;-41
2021/12/26 14:54:09;;;;;;;;;;;22.90;48.00;;;;;;6306215;27;19927;-41
2021/12/26 14:57:23;;;;;;;;;;;22.90;48.00;;;;;;6301820;27;20467;-41
2021/12/26 15:00:25;;;;;;;;;;;22.80;48.00;;;;;;6296437;27;20002;-42
2021/12/26 15:03:32;;;;;;;;;;;22.60;47.90;;;;;;6301885;27;19975;-41
2021/12/26 15:06:41;;;;;;;;;;;22.60;47.80;;;;;;6309196;27;20234;-41
2021/12/26 15:09:44;;;;;;;;;;;22.80;47.90;;;;;;6307831;27;20054;-43
2021/12/26 15:12:47;;;;;;;;;;;22.60;47.80;;;;;;6316184;27;19930;-42
2021/12/26 15:15:49;;;;;;;;;;;22.70;48.00;;;;;;6296542;27;20126;-41
2021/12/26 15:18:55;;;;;;;;;;;22.50;47.80;;;;;;6294879;28;20773;-41
2021/12/26 15:21:59;;;;;;;;;;;22.80;47.90;;;;;;6277115;28;20396;-41
2021/12/26 15:25:00;;;;;;;;;;;22.80;48.00;;;;;;6292932;27;19970;-42
2021/12/26 15:28:04;;;;;;;;;;;23.00;48.70;;;;;;6301814;27;20322;-42
2021/12/26 15:31:12;;;;;;;;;;;22.80;48.00;;;;;;6307227;27;19926;-41
2021/12/26 15:34:13;;;;;;;;;;;22.50;47.90;;;;;;6293318;28;20601;-41
2021/12/26 15:37:16;;;;;;;;;;;22.60;47.90;;;;;;6297969;28;19923;-42
2021/12/26 15:40:18;;;;;;;;;;;22.60;47.90;;;;;;6290657;28;19950;-41
2021/12/26 15:43:19;;;;;;;;;;;22.90;48.00;;;;;;6299202;28;20396;-41
2021/12/26 15:46:22;;;;;;;;;;;22.60;47.90;;;;;;6296458;28;20078;-41
2021/12/26 15:49:25;;;;;;;;;;;22.80;48.00;;;;;;6287624;27;19938;-41
2021/12/26 15:52:26;;;;;;;;;;;23.00;48.10;;;;;;6309708;27;20444;-43
2021/12/26 15:55:29;;;;;;;;;;;22.90;48.10;;;;;;6296975;27;19965;-41
2021/12/26 15:58:32;;;;;;;;;;;22.70;48.00;;;;;;6306330;27;20199;-41
2021/12/26 16:01:33;;;;;;;;;;;22.90;48.10;;;;;;6312727;27;19970;-41
2021/12/26 16:04:35;;;;;;;;;;;22.70;48.10;;;;;;6304311;27;19927;-42
2021/12/26 16:07:36;;;;;;;;;;;22.60;47.90;;;;;;6311769;27;20003;-42
2021/12/26 16:10:38;;;;;;;;;;;22.80;48.60;;;;;;6297621;27;20681;-41
2021/12/26 16:13:40;;;;;;;;;;;23.00;48.10;;;;;;6294309;28;20016;-41
2021/12/26 16:16:42;;;;;;;;;;;22.50;47.90;;;;;;6296313;28;20168;-41
2021/12/26 16:19:44;;;;;;;;;;;22.80;48.00;;;;;;6298014;28;20920;-41
2021/12/26 16:22:47;;;;;;;;;;;22.90;48.10;;;;;;6306969;27;20319;-41
2021/12/26 16:25:48;;;;;;;;;;;22.60;48.60;;;;;;6310291;27;19930;-41
2021/12/26 16:28:50;;;;;;;;;;;22.80;48.00;;;;;;6293491;28;20466;-41
2021/12/26 16:31:52;;;;;;;;;;;22.70;48.00;;;;;;6293887;28;19927;-41
2021/12/26 16:34:53;;;;;;;;;;;22.80;48.10;;;;;;6291032;28;19931;-41
2021/12/26 16:37:54;;;;;;;;;;;22.70;48.00;;;;;;6296063;28;20657;-41
2021/12/26 16:40:56;;;;;;;;;;;22.80;48.10;;;;;;6301049;27;19927;-41
2021/12/26 16:43:58;;;;;;;;;;;23.00;48.20;;;;;;6312346;27;20024;-41
2021/12/26 16:47:00;;;;;;;;;;;22.60;48.00;;;;;;6292376;28;19929;-42
2021/12/26 16:50:02;;;;;;;;;;;23.00;48.20;;;;;;6294681;28;20340;-41
2021/12/26 16:53:04;;;;;;;;;;;22.70;48.00;;;;;;6273718;27;20856;-41
2021/12/26 16:56:07;;;;;;;;;;;22.70;48.00;;;;;;6294675;27;20120;-42
2021/12/26 16:59:11;;;;;;;;;;;22.90;48.10;;;;;;6302336;27;19928;-41
2021/12/26 17:02:12;;;;;;;;;;;22.70;48.00;;;;;;6318875;27;20046;-42
2021/12/26 17:05:17;;;;;;;;;;;22.60;48.00;;;;;;6314236;27;20012;-41
2021/12/26 17:08:19;;;;;;;;;;;22.70;48.10;;;;;;6294808;27;20325;-41
2021/12/26 17:11:20;;;;;;;;;;;22.70;48.10;;;;;;6299106;27;20243;-42
2021/12/26 17:14:22;;;;;;;;;;;22.80;48.20;;;;;;6299889;27;19931;-41
2021/12/26 17:17:23;;;;;;;;;;;22.60;48.20;;;;;;6306883;27;20040;-41
2021/12/26 17:20:25;;;;;;;;;;;22.70;48.30;;;;;;6317137;27;20284;-41
2021/12/26 17:23:26;;;;;;;;;;;22.50;48.30;;;;;;6300116;27;20315;-41
2021/12/26 17:26:28;;;;;;;;;;;22.60;48.40;;;;;;6293157;27;19996;-42
2021/12/26 17:29:30;;;;;;;;;;;22.90;48.60;;;;;;6299825;27;20486;-41
2021/12/26 17:32:31;;;;;;;;;;;22.80;48.60;;;;;;6295736;28;19930;-41
2021/12/26 17:35:35;;;;;;;;;;;22.70;48.60;;;;;;6311445;27;19926;-41
2021/12/26 17:38:38;;;;;;;;;;;22.50;48.60;;;;;;6299998;27;20361;-41
2021/12/26 17:41:39;;;;;;;;;;;22.10;48.40;;;;;;6298938;28;20340;-42
2021/12/26 17:44:41;;;;;;;;;;;22.70;48.90;;;;;;6297549;27;19950;-41
2021/12/26 17:47:43;;;;;;;;;;;22.10;48.60;;;;;;6298930;28;20112;-42
2021/12/26 17:50:44;;;;;;;;;;;22.30;48.70;;;;;;6279833;28;20506;-41
2021/12/26 17:54:06;;;;;;;;;;;22.30;48.70;;;;;;6295253;27;20506;-41
2021/12/26 17:57:07;;;;;;;;;;;22.50;48.90;;;;;;6297465;27;20378;-42